createdAt,value
2019-05-06T00:02:01.657Z,99.90
2019-05-06T00:04:44.821Z,99.90
2019-05-06T00:07:24.315Z,99.90
2019-05-06T00:10:02.910Z,99.90
2019-05-06T00:12:40.452Z,99.90
2019-05-06T00:15:17.631Z,99.90
2019-05-06T00:18:10.248Z,99.90
2019-05-06T00:20:47.418Z,99.90
2019-05-06T00:23:29.291Z,99.90
2019-05-06T00:26:34.009Z,99.90
2019-05-06T00:29:17.103Z,99.90
2019-05-06T00:31:55.119Z,99.90
2019-05-06T00:34:34.189Z,99.90
2019-05-06T00:37:12.153Z,99.90
2019-05-06T00:39:57.876Z,99.90
2019-05-06T00:42:38.768Z,99.90
2019-05-06T00:45:16.522Z,99.90
2019-05-06T00:47:54.258Z,99.90
2019-05-06T00:50:31.882Z,99.90
2019-05-06T00:53:11.695Z,99.90
2019-05-06T00:55:49.150Z,99.90
2019-05-06T00:58:26.539Z,99.90
2019-05-06T01:01:04.792Z,99.90
2019-05-06T01:03:44.212Z,99.90
2019-05-06T01:06:21.479Z,99.90
2019-05-06T01:08:59.229Z,99.90
2019-05-06T01:11:36.694Z,99.90
2019-05-06T01:14:19.793Z,99.90
2019-05-06T01:16:57.213Z,99.90
2019-05-06T01:19:34.705Z,99.90
2019-05-06T01:22:13.961Z,99.90
2019-05-06T01:24:51.115Z,99.90
2019-05-06T01:27:28.516Z,99.90
2019-05-06T01:30:07.195Z,99.90
2019-05-06T01:32:45.349Z,99.90
2019-05-06T01:35:24.486Z,99.90
2019-05-06T01:38:25.179Z,99.90
2019-05-06T01:41:17.347Z,99.90
2019-05-06T01:43:55.221Z,99.90
2019-05-06T01:46:34.018Z,99.90
2019-05-06T01:49:11.294Z,99.90
2019-05-06T01:51:48.608Z,99.90
2019-05-06T01:54:26.829Z,99.90
2019-05-06T01:57:04.741Z,99.90
2019-05-06T01:59:44.354Z,99.90
2019-05-06T02:02:23.708Z,99.90
2019-05-06T02:05:01.070Z,99.90
2019-05-06T02:07:38.948Z,99.90
2019-05-06T02:10:17.340Z,99.90
2019-05-06T02:12:55.144Z,99.90
2019-05-06T02:15:34.632Z,99.90
2019-05-06T02:18:13.532Z,99.90
2019-05-06T02:20:53.942Z,99.90
2019-05-06T02:23:33.832Z,99.90
2019-05-06T02:26:11.273Z,99.90
2019-05-06T02:28:50.668Z,99.90
2019-05-06T02:32:24.551Z,99.90
2019-05-06T02:34:50.067Z,99.90
2019-05-06T02:37:35.357Z,99.90
2019-05-06T02:40:25.370Z,99.90
2019-05-06T02:43:03.575Z,99.90
2019-05-06T02:45:43.288Z,99.90
2019-05-06T02:48:43.252Z,99.90
2019-05-06T02:51:24.561Z,99.90
2019-05-06T02:54:03.319Z,99.90
2019-05-06T02:56:43.314Z,99.90
2019-05-06T02:59:20.184Z,99.90
2019-05-06T03:01:57.555Z,99.90
2019-05-06T03:04:35.024Z,99.90
2019-05-06T03:07:23.984Z,99.90
2019-05-06T03:10:04.121Z,99.90
2019-05-06T03:12:43.101Z,99.90
2019-05-06T03:15:26.513Z,99.90
2019-05-06T03:18:04.315Z,99.90
2019-05-06T03:21:03.811Z,99.90
2019-05-06T03:23:44.499Z,99.90
2019-05-06T03:26:23.590Z,99.90
2019-05-06T03:29:02.883Z,99.90
2019-05-06T03:31:45.797Z,99.90
2019-05-06T03:34:38.301Z,99.90
2019-05-06T03:36:59.261Z,99.90
2019-05-06T03:39:37.026Z,99.90
2019-05-06T03:42:16.717Z,99.90
2019-05-06T03:44:59.270Z,99.90
2019-05-06T03:47:47.523Z,99.90
2019-05-06T03:50:26.394Z,99.90
2019-05-06T03:53:20.007Z,99.90
2019-05-06T03:56:09.066Z,99.90
2019-05-06T03:58:48.485Z,99.90
2019-05-06T04:01:26.359Z,99.90
2019-05-06T04:04:04.021Z,99.90
2019-05-06T04:06:43.700Z,99.90
2019-05-06T04:09:24.051Z,99.90
2019-05-06T04:12:03.604Z,99.90
2019-05-06T04:14:43.361Z,99.90
2019-05-06T04:17:29.385Z,99.90
2019-05-06T04:20:23.382Z,99.90
2019-05-06T04:23:13.298Z,99.90
2019-05-06T04:26:06.358Z,99.90
2019-05-06T04:28:43.903Z,99.90
2019-05-06T04:31:22.876Z,99.90
2019-05-06T04:34:09.962Z,99.90
2019-05-06T04:36:53.509Z,99.90
2019-05-06T04:39:33.158Z,99.90
2019-05-06T04:42:13.698Z,99.90
2019-05-06T04:44:52.945Z,99.90
2019-05-06T04:47:43.460Z,99.90
2019-05-06T04:50:23.879Z,99.90
2019-05-06T04:53:04.523Z,99.10
2019-05-06T04:55:44.139Z,98.70
2019-05-06T04:58:23.280Z,97.50
2019-05-06T05:01:04.157Z,96.60
2019-05-06T05:03:53.922Z,96.00
2019-05-06T05:06:32.881Z,95.80
2019-05-06T05:09:14.490Z,94.70
2019-05-06T05:11:54.404Z,94.40
2019-05-06T05:14:51.926Z,94.50
2019-05-06T05:17:52.599Z,93.60
2019-05-06T05:20:38.192Z,93.10
2019-05-06T05:23:11.890Z,92.80
2019-05-06T05:25:49.389Z,91.70
2019-05-06T05:28:26.816Z,91.10
2019-05-06T05:31:05.660Z,91.30
2019-05-06T05:33:46.350Z,90.60
2019-05-06T05:36:24.200Z,90.50
2019-05-06T05:39:03.379Z,89.80
2019-05-06T05:41:42.771Z,87.00
2019-05-06T05:44:23.706Z,87.00
2019-05-06T05:47:03.413Z,86.80
2019-05-06T05:50:13.280Z,85.70
2019-05-06T05:52:51.954Z,85.30
2019-05-06T05:55:29.513Z,83.20
2019-05-06T05:58:07.328Z,80.80
2019-05-06T06:00:45.055Z,80.40
2019-05-06T06:03:22.499Z,78.20
2019-05-06T06:06:00.436Z,75.70
2019-05-06T06:08:37.630Z,73.90
2019-05-06T06:11:23.008Z,72.20
2019-05-06T06:14:03.801Z,69.20
2019-05-06T06:16:58.803Z,68.00
2019-05-06T06:19:45.509Z,64.70
2019-05-06T06:22:25.249Z,63.10
2019-05-06T06:25:04.302Z,63.70
2019-05-06T06:27:51.877Z,62.00
2019-05-06T06:30:35.755Z,60.40
2019-05-06T06:33:22.322Z,59.90
2019-05-06T06:36:24.723Z,59.20
2019-05-06T06:39:22.881Z,58.80
2019-05-06T06:42:00.199Z,56.90
2019-05-06T06:44:37.537Z,58.00
2019-05-06T06:47:22.495Z,58.60
2019-05-06T06:49:59.958Z,62.00
2019-05-06T06:52:38.297Z,60.60
2019-05-06T06:55:18.316Z,61.00
2019-05-06T06:58:13.583Z,60.10
2019-05-06T07:01:12.248Z,58.40
2019-05-06T07:03:58.776Z,56.80
2019-05-06T07:06:47.446Z,56.40
2019-05-06T07:09:24.970Z,55.90
2019-05-06T07:12:03.547Z,53.50
2019-05-06T07:14:42.810Z,51.40
2019-05-06T07:17:22.706Z,51.70
2019-05-06T07:20:02.987Z,53.90
2019-05-06T07:22:42.515Z,52.30
2019-05-06T07:25:22.626Z,52.80
2019-05-06T07:27:59.707Z,51.10
2019-05-06T07:30:37.423Z,50.30
2019-05-06T07:33:14.724Z,51.10
2019-05-06T07:35:54.090Z,50.40
2019-05-06T07:38:32.644Z,48.70
2019-05-06T07:41:15.313Z,47.60
2019-05-06T07:44:18.337Z,49.50
2019-05-06T07:47:15.735Z,49.00
2019-05-06T07:49:53.322Z,48.10
2019-05-06T07:52:32.585Z,49.30
2019-05-06T07:55:12.010Z,48.10
2019-05-06T07:57:50.596Z,46.90
2019-05-06T08:00:28.185Z,47.00
2019-05-06T08:03:06.356Z,46.00
2019-05-06T08:05:55.150Z,47.60
2019-05-06T08:08:24.152Z,46.90
2019-05-06T08:11:02.854Z,44.90
2019-05-06T08:13:40.248Z,44.90
2019-05-06T08:16:18.729Z,46.90
2019-05-06T08:18:56.561Z,46.50
2019-05-06T08:21:37.110Z,45.90
2019-05-06T08:24:14.428Z,44.80
2019-05-06T08:26:52.235Z,43.10
2019-05-06T08:29:29.917Z,41.50
2019-05-06T08:32:07.663Z,43.20
2019-05-06T08:34:45.029Z,41.90
2019-05-06T08:37:32.165Z,42.30
2019-05-06T08:40:11.998Z,42.00
2019-05-06T08:42:53.057Z,44.00
2019-05-06T08:45:29.763Z,44.20
2019-05-06T08:48:07.187Z,43.30
2019-05-06T08:51:02.835Z,44.30
2019-05-06T08:53:44.521Z,43.40
2019-05-06T08:56:23.102Z,46.10
2019-05-06T08:59:02.991Z,49.50
2019-05-06T09:01:46.926Z,50.70
2019-05-06T09:04:24.128Z,48.20
2019-05-06T09:07:02.920Z,44.90
2019-05-06T09:09:42.199Z,45.30
2019-05-06T09:12:22.317Z,48.90
2019-05-06T09:15:03.445Z,50.70
2019-05-06T09:17:42.121Z,52.60
2019-05-06T09:20:19.791Z,53.30
2019-05-06T09:22:57.403Z,53.90
2019-05-06T09:25:34.562Z,54.20
2019-05-06T09:28:34.360Z,54.50
2019-05-06T09:31:25.026Z,55.50
2019-05-06T09:34:09.747Z,54.40
2019-05-06T09:36:52.670Z,54.20
2019-05-06T09:39:32.158Z,55.50
2019-05-06T09:42:08.727Z,55.80
2019-05-06T09:44:50.230Z,56.40
2019-05-06T09:48:00.012Z,57.10
2019-05-06T09:50:45.497Z,56.10
2019-05-06T09:53:43.227Z,52.80
2019-05-06T09:56:28.355Z,53.00
2019-05-06T09:59:05.783Z,53.50
2019-05-06T10:01:43.760Z,53.40
2019-05-06T10:04:22.739Z,53.80
2019-05-06T10:07:02.548Z,53.40
2019-05-06T10:09:39.603Z,52.40
2019-05-06T10:12:17.023Z,51.10
2019-05-06T10:14:54.819Z,48.30
2019-05-06T10:17:32.622Z,47.00
2019-05-06T10:20:10.032Z,47.70
2019-05-06T10:22:48.197Z,49.70
2019-05-06T10:25:37.621Z,50.80
2019-05-06T10:28:33.610Z,51.30
2019-05-06T10:31:12.863Z,51.30
2019-05-06T10:34:07.893Z,51.90
2019-05-06T10:37:12.650Z,52.90
2019-05-06T10:39:43.374Z,53.50
2019-05-06T10:42:25.448Z,51.80
2019-05-06T10:45:26.625Z,52.70
2019-05-06T10:48:04.028Z,54.10
2019-05-06T10:50:55.704Z,55.30
2019-05-06T10:53:33.053Z,54.40
2019-05-06T10:56:32.877Z,55.20
2019-05-06T10:59:22.074Z,55.50
2019-05-06T11:02:05.757Z,54.60
2019-05-06T11:04:43.062Z,55.00
2019-05-06T11:07:29.409Z,55.30
2019-05-06T11:10:02.434Z,53.70
2019-05-06T11:12:40.309Z,54.60
2019-05-06T11:15:23.237Z,54.40
2019-05-06T11:18:04.223Z,53.50
2019-05-06T11:20:43.457Z,52.50
2019-05-06T11:23:21.811Z,53.10
2019-05-06T11:26:10.255Z,53.10
2019-05-06T11:28:55.831Z,54.30
2019-05-06T11:31:43.299Z,53.10
2019-05-06T11:34:45.287Z,53.00
2019-05-06T11:37:47.233Z,51.00
2019-05-06T11:40:18.572Z,49.50
2019-05-06T11:42:56.443Z,49.10
2019-05-06T11:45:33.647Z,47.50
2019-05-06T11:48:14.272Z,49.00
2019-05-06T11:50:51.566Z,49.80
2019-05-06T11:53:29.951Z,49.50
2019-05-06T11:56:07.299Z,50.60
2019-05-06T11:58:54.871Z,50.50
2019-05-06T12:01:37.428Z,49.70
2019-05-06T12:04:14.825Z,50.30
2019-05-06T12:07:09.239Z,47.60
2019-05-06T12:09:33.395Z,47.30
2019-05-06T12:12:12.978Z,47.50
2019-05-06T12:14:52.470Z,56.60
2019-05-06T12:17:29.166Z,64.60
2019-05-06T12:20:08.078Z,70.60
2019-05-06T12:22:45.228Z,76.60
2019-05-06T12:25:23.741Z,80.90
2019-05-06T12:28:03.076Z,85.50
2019-05-06T12:30:42.595Z,90.60
2019-05-06T12:33:36.776Z,91.00
2019-05-06T12:36:25.634Z,93.30
2019-05-06T12:39:23.073Z,95.00
2019-05-06T12:42:10.219Z,96.10
2019-05-06T12:45:03.297Z,96.80
2019-05-06T12:47:47.663Z,97.00
2019-05-06T12:50:25.977Z,97.20
2019-05-06T12:53:03.159Z,97.70
2019-05-06T12:55:43.017Z,98.30
2019-05-06T12:58:23.067Z,98.40
2019-05-06T13:00:58.960Z,98.40
2019-05-06T13:03:38.022Z,98.10
2019-05-06T13:06:15.379Z,98.60
2019-05-06T13:09:00.991Z,98.50
2019-05-06T13:11:32.134Z,97.70
2019-05-06T13:14:09.683Z,97.70
2019-05-06T13:16:47.387Z,98.40
2019-05-06T13:19:24.800Z,98.30
2019-05-06T13:22:03.542Z,97.80
2019-05-06T13:24:42.047Z,98.20
2019-05-06T13:27:23.204Z,98.60
2019-05-06T13:30:02.351Z,98.60
2019-05-06T13:32:43.233Z,99.00
2019-05-06T13:35:22.620Z,99.10
2019-05-06T13:38:01.088Z,99.20
2019-05-06T13:40:50.684Z,98.70
2019-05-06T13:43:46.158Z,99.50
2019-05-06T13:46:27.012Z,99.40
2019-05-06T13:49:25.568Z,99.70
2019-05-06T13:52:05.183Z,99.80
2019-05-06T13:54:43.129Z,99.90
2019-05-06T13:57:20.583Z,98.50
2019-05-06T13:59:58.096Z,99.20
2019-05-06T14:03:02.131Z,99.50
2019-05-06T14:05:42.384Z,99.40
2019-05-06T14:08:19.592Z,99.90
2019-05-06T14:10:59.955Z,99.60
2019-05-06T14:13:36.053Z,99.90
2019-05-06T14:16:13.644Z,99.30
2019-05-06T14:18:53.253Z,98.80
2019-05-06T14:21:32.369Z,99.40
2019-05-06T14:24:13.292Z,99.80
2019-05-06T14:27:02.379Z,99.80
2019-05-06T14:30:04.812Z,99.90
2019-05-06T14:32:43.961Z,99.10
2019-05-06T14:35:23.094Z,99.90
2019-05-06T14:38:00.061Z,99.90
2019-05-06T14:40:56.853Z,99.70
2019-05-06T14:43:35.395Z,99.20
2019-05-06T14:46:13.269Z,98.50
2019-05-06T14:48:53.267Z,98.30
2019-05-06T14:51:32.818Z,98.20
2019-05-06T14:54:09.972Z,98.20
2019-05-06T14:56:53.366Z,98.00
2019-05-06T14:59:32.948Z,97.70
2019-05-06T15:02:10.058Z,97.70
2019-05-06T15:04:47.421Z,97.40
2019-05-06T15:07:24.997Z,97.70
2019-05-06T15:10:19.285Z,98.00
2019-05-06T15:12:42.770Z,98.20
2019-05-06T15:15:20.174Z,98.40
2019-05-06T15:17:57.703Z,97.60
2019-05-06T15:20:35.213Z,96.80
2019-05-06T15:23:23.912Z,95.50
2019-05-06T15:26:03.063Z,96.80
2019-05-06T15:28:42.561Z,96.90
2019-05-06T15:31:34.466Z,96.80
2019-05-06T15:34:16.029Z,96.90
2019-05-06T15:37:02.240Z,97.00
2019-05-06T15:39:39.312Z,96.40
2019-05-06T15:42:17.109Z,96.10
2019-05-06T15:44:54.777Z,95.20
2019-05-06T15:47:32.623Z,96.20
2019-05-06T15:50:12.515Z,97.30
2019-05-06T15:52:57.308Z,96.90
2019-05-06T15:55:34.722Z,98.10
2019-05-06T15:58:12.497Z,98.10
2019-05-06T16:00:49.857Z,98.60
2019-05-06T16:03:27.459Z,98.80
2019-05-06T16:06:05.217Z,98.80
2019-05-06T16:08:42.813Z,99.20
2019-05-06T16:11:25.752Z,99.30
2019-05-06T16:14:03.298Z,99.80
2019-05-06T16:16:42.866Z,99.50
2019-05-06T16:19:23.119Z,99.30
2019-05-06T16:22:03.929Z,99.50
2019-05-06T16:24:45.906Z,99.60
2019-05-06T16:27:23.492Z,99.50
2019-05-06T16:30:03.375Z,99.60
2019-05-06T16:32:42.001Z,99.90
2019-05-06T16:35:19.328Z,99.90
2019-05-06T16:37:56.800Z,99.90
2019-05-06T16:40:34.611Z,99.90
2019-05-06T16:43:12.662Z,99.90
2019-05-06T16:45:52.933Z,99.90
2019-05-06T16:48:29.774Z,99.90
2019-05-06T16:51:07.647Z,99.90
2019-05-06T16:53:45.842Z,99.90
2019-05-06T16:56:47.206Z,99.90
2019-05-06T16:59:25.521Z,99.90
2019-05-06T17:02:08.151Z,99.90
2019-05-06T17:05:05.188Z,99.90
2019-05-06T17:07:45.072Z,99.90
2019-05-06T17:10:26.683Z,99.90
2019-05-06T17:13:04.216Z,99.90
2019-05-06T17:15:41.735Z,99.90
2019-05-06T17:18:25.460Z,99.90
2019-05-06T17:21:02.915Z,99.90
2019-05-06T17:23:42.175Z,99.90
2019-05-06T17:26:19.143Z,99.90
2019-05-06T17:29:04.990Z,99.90
2019-05-06T17:31:55.481Z,99.90
2019-05-06T17:34:38.776Z,99.90
2019-05-06T17:37:36.949Z,99.90
2019-05-06T17:40:16.276Z,99.90
2019-05-06T17:42:53.824Z,99.90
2019-05-06T17:46:01.678Z,99.90
2019-05-06T17:49:02.387Z,99.90
2019-05-06T17:52:03.005Z,99.90
2019-05-06T17:54:42.880Z,99.90
2019-05-06T17:57:22.192Z,99.90
2019-05-06T18:00:03.283Z,99.90
2019-05-06T18:02:42.149Z,99.90
2019-05-06T18:05:22.734Z,99.90
2019-05-06T18:07:59.652Z,99.90
2019-05-06T18:10:37.390Z,99.90
2019-05-06T18:13:14.914Z,99.90
2019-05-06T18:15:53.064Z,99.90
2019-05-06T18:18:31.426Z,99.90
2019-05-06T18:21:09.433Z,99.90
2019-05-06T18:23:49.566Z,99.90
2019-05-06T18:26:26.367Z,99.90
2019-05-06T18:29:04.413Z,99.90
2019-05-06T18:31:42.925Z,99.90
2019-05-06T18:34:23.055Z,99.90
2019-05-06T18:37:00.359Z,99.90
2019-05-06T18:39:38.565Z,99.90
2019-05-06T18:42:20.220Z,99.90
2019-05-06T18:44:55.216Z,99.90
2019-05-06T18:47:33.543Z,99.90
2019-05-06T18:50:12.571Z,99.90
2019-05-06T18:52:53.967Z,99.90
2019-05-06T18:55:33.077Z,99.90
2019-05-06T18:58:12.979Z,99.90
2019-05-06T19:00:53.027Z,99.90
2019-05-06T19:03:35.450Z,99.90
2019-05-06T19:06:12.988Z,99.90
2019-05-06T19:09:03.639Z,99.90
2019-05-06T19:11:42.654Z,99.90
2019-05-06T19:14:21.699Z,99.90
2019-05-06T19:16:59.026Z,99.90
2019-05-06T19:19:36.529Z,99.90
2019-05-06T19:22:14.568Z,99.90
2019-05-06T19:24:52.433Z,99.90
2019-05-06T19:27:32.763Z,99.90
2019-05-06T19:30:12.822Z,99.90
2019-05-06T19:32:49.610Z,99.90
2019-05-06T19:35:27.487Z,99.90
2019-05-06T19:38:05.333Z,99.90
2019-05-06T19:40:42.816Z,99.90
2019-05-06T19:43:21.992Z,99.90
2019-05-06T19:45:59.735Z,99.90
2019-05-06T19:48:38.604Z,99.90
2019-05-06T19:51:19.229Z,99.90
2019-05-06T19:53:56.541Z,99.90
2019-05-06T19:56:34.047Z,99.90
2019-05-06T19:59:12.901Z,99.90
2019-05-06T20:01:52.474Z,99.90
2019-05-06T20:04:30.118Z,99.90
2019-05-06T20:07:27.141Z,99.90
2019-05-06T20:10:28.121Z,99.90
2019-05-06T20:13:05.865Z,99.90
2019-05-06T20:15:43.409Z,99.90
2019-05-06T20:18:22.318Z,99.90
2019-05-06T20:21:00.572Z,99.90
2019-05-06T20:23:37.907Z,99.90
2019-05-06T20:26:15.653Z,99.90
2019-05-06T20:28:53.043Z,99.90
2019-05-06T20:31:32.157Z,99.90
2019-05-06T20:34:12.849Z,99.90
2019-05-06T20:36:49.949Z,99.90
2019-05-06T20:39:27.555Z,99.90
2019-05-06T20:42:05.482Z,99.90
2019-05-06T20:44:43.465Z,99.90
2019-05-06T20:47:21.879Z,99.90
2019-05-06T20:50:13.282Z,99.90
2019-05-06T20:52:52.046Z,99.90
2019-05-06T20:55:32.631Z,99.90
2019-05-06T20:58:08.700Z,99.90
2019-05-06T21:00:46.030Z,99.90
2019-05-06T21:03:23.947Z,99.90
2019-05-06T21:06:02.147Z,99.90
2019-05-06T21:08:42.120Z,99.90
2019-05-06T21:11:32.512Z,99.90
2019-05-06T21:14:09.540Z,99.90
2019-05-06T21:16:48.217Z,99.90
2019-05-06T21:19:25.742Z,99.90
2019-05-06T21:22:03.076Z,99.90
2019-05-06T21:24:43.073Z,99.90
2019-05-06T21:27:22.940Z,99.90
2019-05-06T21:30:02.400Z,99.90
2019-05-06T21:32:39.697Z,99.90
2019-05-06T21:35:16.917Z,99.90
2019-05-06T21:37:54.044Z,99.90
2019-05-06T21:40:32.271Z,99.90
2019-05-06T21:43:12.982Z,99.90
2019-05-06T21:45:50.267Z,99.90
2019-05-06T21:48:28.161Z,99.90
2019-05-06T21:51:06.099Z,99.90
2019-05-06T21:53:43.445Z,99.90
2019-05-06T21:56:22.623Z,99.90
2019-05-06T21:59:01.828Z,99.90
2019-05-06T22:01:43.021Z,99.90
2019-05-06T22:04:19.805Z,99.90
2019-05-06T22:06:57.039Z,99.90
2019-05-06T22:09:34.467Z,99.90
2019-05-06T22:12:11.850Z,99.90
2019-05-06T22:14:49.309Z,99.90
2019-05-06T22:17:27.033Z,99.90
2019-05-06T22:20:05.579Z,99.90
2019-05-06T22:22:44.073Z,99.90
2019-05-06T22:25:22.166Z,99.90
2019-05-06T22:27:59.713Z,99.90
2019-05-06T22:30:37.493Z,99.90
2019-05-06T22:33:14.901Z,99.90
2019-05-06T22:35:54.857Z,99.90
2019-05-06T22:38:31.561Z,99.90
2019-05-06T22:41:08.833Z,99.90
2019-05-06T22:43:46.788Z,99.90
2019-05-06T22:46:24.244Z,99.90
2019-05-06T22:49:02.567Z,99.90
2019-05-06T22:51:40.083Z,99.90
2019-05-06T22:54:17.517Z,99.90
2019-05-06T22:56:55.035Z,99.90
2019-05-06T22:59:32.978Z,99.90
2019-05-06T23:02:35.488Z,99.90
2019-05-06T23:05:13.466Z,99.90
2019-05-06T23:07:53.243Z,99.90
2019-05-06T23:10:30.746Z,99.90
2019-05-06T23:13:19.748Z,99.90
2019-05-06T23:15:57.242Z,99.90
2019-05-06T23:18:35.436Z,99.90
2019-05-06T23:21:14.747Z,99.90
2019-05-06T23:23:54.467Z,99.90
2019-05-06T23:26:31.092Z,99.90
2019-05-06T23:29:09.087Z,99.90
2019-05-06T23:31:46.415Z,99.90
2019-05-06T23:34:23.852Z,99.90
2019-05-06T23:37:25.531Z,99.90
2019-05-06T23:40:42.537Z,99.90
2019-05-06T23:43:55.552Z,99.90
2019-05-06T23:47:09.405Z,99.90
2019-05-06T23:50:23.692Z,99.90
2019-05-06T23:53:37.431Z,99.90
2019-05-06T23:56:43.385Z,99.90
2019-05-06T23:59:22.546Z,99.90
